sensor_id;sensor_type;location;lat;lon;timestamp;pressure;altitude;pressure_sealevel;temperature;humidity
32759;BME280;19125;52.360;9.974;2024-03-25T00:01:04;87493.19;;;-145.17;65.95
32759;BME280;19125;52.360;9.974;2024-03-25T00:03:30;87503.13;;;-145.17;65.92
32759;BME280;19125;52.360;9.974;2024-03-25T00:05:55;87524.94;;;-145.17;66.46
32759;BME280;19125;52.360;9.974;2024-03-25T00:08:22;87507.09;;;-145.17;66.46
32759;BME280;19125;52.360;9.974;2024-03-25T00:10:47;87501.13;;;-145.17;66.50
32759;BME280;19125;52.360;9.974;2024-03-25T00:13:13;87491.22;;;-145.17;66.13
32759;BME280;19125;52.360;9.974;2024-03-25T00:15:38;87546.78;;;-145.17;66.53
32759;BME280;19125;52.360;9.974;2024-03-25T00:18:04;87530.91;;;-145.17;67.17
32759;BME280;19125;52.360;9.974;2024-03-25T00:20:29;87499.16;;;-145.17;66.86
32759;BME280;19125;52.360;9.974;2024-03-25T00:22:55;87445.56;;;-145.17;66.98
32759;BME280;19125;52.360;9.974;2024-03-25T00:25:20;87447.53;;;-145.17;66.88
32759;BME280;19125;52.360;9.974;2024-03-25T00:27:46;87465.41;;;-145.17;66.72
32759;BME280;19125;52.360;9.974;2024-03-25T00:30:11;87481.28;;;-145.17;66.93
32759;BME280;19125;52.360;9.974;2024-03-25T00:32:37;87481.28;;;-145.17;66.59
32759;BME280;19125;52.360;9.974;2024-03-25T00:35:03;87445.56;;;-145.17;66.66
32759;BME280;19125;52.360;9.974;2024-03-25T00:37:28;87477.31;;;-145.17;66.70
32759;BME280;19125;52.360;9.974;2024-03-25T00:39:54;87453.50;;;-145.17;66.41
32759;BME280;19125;52.360;9.974;2024-03-25T00:42:19;87457.47;;;-145.17;66.23
32759;BME280;19125;52.360;9.974;2024-03-25T00:44:44;87473.34;;;-145.17;66.50
32759;BME280;19125;52.360;9.974;2024-03-25T00:47:10;87469.38;;;-145.17;66.42
32759;BME280;19125;52.360;9.974;2024-03-25T00:49:36;87465.41;;;-145.17;66.19
32759;BME280;19125;52.360;9.974;2024-03-25T00:52:01;87540.84;;;-145.17;66.09
32759;BME280;19125;52.360;9.974;2024-03-25T00:54:27;87445.56;;;-145.17;66.27
32759;BME280;19125;52.360;9.974;2024-03-25T00:56:52;87453.50;;;-145.17;65.81
32759;BME280;19125;52.360;9.974;2024-03-25T00:59:18;87415.78;;;-145.17;65.84
32759;BME280;19125;52.360;9.974;2024-03-25T01:01:44;87437.63;;;-145.17;66.07
32759;BME280;19125;52.360;9.974;2024-03-25T01:04:09;87443.56;;;-145.17;65.86
32759;BME280;19125;52.360;9.974;2024-03-25T01:06:35;87471.34;;;-145.17;65.48
32759;BME280;19125;52.360;9.974;2024-03-25T01:09:00;87439.59;;;-145.17;65.70
32759;BME280;19125;52.360;9.974;2024-03-25T01:11:25;87473.34;;;-145.17;65.63
32759;BME280;19125;52.360;9.974;2024-03-25T01:13:51;87443.56;;;-145.17;65.38
32759;BME280;19125;52.360;9.974;2024-03-25T01:16:16;87433.66;;;-145.17;65.33
32759;BME280;19125;52.360;9.974;2024-03-25T01:18:42;87443.56;;;-145.17;65.70
32759;BME280;19125;52.360;9.974;2024-03-25T01:21:07;87465.41;;;-145.17;65.48
32759;BME280;19125;52.360;9.974;2024-03-25T01:23:32;87447.53;;;-145.17;65.63
32759;BME280;19125;52.360;9.974;2024-03-25T01:25:58;87477.31;;;-145.17;65.49
32759;BME280;19125;52.360;9.974;2024-03-25T01:28:23;87439.59;;;-145.17;65.54
32759;BME280;19125;52.360;9.974;2024-03-25T01:30:49;87505.09;;;-145.17;65.53
32759;BME280;19125;52.360;9.974;2024-03-25T01:33:14;87509.06;;;-145.17;65.63
32759;BME280;19125;52.360;9.974;2024-03-25T01:35:40;87455.47;;;-145.17;66.01
32759;BME280;19125;52.360;9.974;2024-03-25T01:38:05;87465.41;;;-145.17;66.15
32759;BME280;19125;52.360;9.974;2024-03-25T01:40:31;87479.28;;;-145.17;66.31
32759;BME280;19125;52.360;9.974;2024-03-25T01:43:01;87447.53;;;-145.17;66.31
32759;BME280;19125;52.360;9.974;2024-03-25T01:45:31;87467.38;;;-145.17;67.08
32759;BME280;19125;52.360;9.974;2024-03-25T01:47:59;87477.31;;;-145.17;66.88
32759;BME280;19125;52.360;9.974;2024-03-25T01:50:25;87459.44;;;-145.17;67.33
32759;BME280;19125;52.360;9.974;2024-03-25T01:52:51;87449.53;;;-145.17;67.47
32759;BME280;19125;52.360;9.974;2024-03-25T01:55:20;87439.59;;;-145.17;67.57
32759;BME280;19125;52.360;9.974;2024-03-25T01:57:47;87429.66;;;-145.17;67.37
32759;BME280;19125;52.360;9.974;2024-03-25T02:00:14;87445.56;;;-145.17;68.04
32759;BME280;19125;52.360;9.974;2024-03-25T02:02:41;87342.34;;;-145.17;67.81
32759;BME280;19125;52.360;9.974;2024-03-25T02:05:09;87324.47;;;-145.17;68.01
32759;BME280;19125;52.360;9.974;2024-03-25T02:07:35;87294.69;;;-145.17;68.33
32759;BME280;19125;52.360;9.974;2024-03-25T02:10:07;87191.47;;;-145.17;68.48
32759;BME280;19125;52.360;9.974;2024-03-25T02:12:37;87159.72;;;-145.17;68.76
32759;BME280;19125;52.360;9.974;2024-03-25T02:15:04;87068.41;;;-145.17;69.20
32759;BME280;19125;52.360;9.974;2024-03-25T02:17:30;86921.53;;;-145.17;68.96
32759;BME280;19125;52.360;9.974;2024-03-25T02:19:55;86719.09;;;-145.17;69.24
32759;BME280;19125;52.360;9.974;2024-03-25T02:22:21;86574.22;;;-145.17;69.51
32759;BME280;19125;52.360;9.974;2024-03-25T02:24:49;86469.06;;;-145.17;69.63
32759;BME280;19125;52.360;9.974;2024-03-25T02:27:15;86201.16;;;-145.17;69.52
32759;BME280;19125;52.360;9.974;2024-03-25T02:29:41;85992.78;;;-145.17;69.65
32759;BME280;19125;52.360;9.974;2024-03-25T02:32:07;85748.72;;;-145.17;69.50
32759;BME280;19125;52.360;9.974;2024-03-25T02:34:37;85818.19;;;-145.17;69.80
32759;BME280;19125;52.360;9.974;2024-03-25T02:37:03;85861.84;;;-145.17;69.54
32759;BME280;19125;52.360;9.974;2024-03-25T02:39:29;86064.22;;;-145.17;69.65
32759;BME280;19125;52.360;9.974;2024-03-25T02:41:55;86173.38;;;-145.17;69.40
32759;BME280;19125;52.360;9.974;2024-03-25T02:44:21;86391.66;;;-145.17;69.37
32759;BME280;19125;52.360;9.974;2024-03-25T02:46:47;86518.66;;;-145.17;69.27
32759;BME280;19125;52.360;9.974;2024-03-25T02:49:13;86528.59;;;-145.17;69.04
32759;BME280;19125;52.360;9.974;2024-03-25T02:51:38;86683.38;;;-145.17;69.05
32759;BME280;19125;52.360;9.974;2024-03-25T02:54:03;86663.53;;;-145.17;68.90
32759;BME280;19125;52.360;9.974;2024-03-25T02:56:29;86731.00;;;-145.17;68.71
32759;BME280;19125;52.360;9.974;2024-03-25T02:58:54;86734.97;;;-145.17;68.87
32759;BME280;19125;52.360;9.974;2024-03-25T03:01:19;86731.00;;;-145.17;68.89
32759;BME280;19125;52.360;9.974;2024-03-25T03:03:45;86727.03;;;-145.17;69.10
32759;BME280;19125;52.360;9.974;2024-03-25T03:06:10;86746.91;;;-145.17;68.96
32759;BME280;19125;52.360;9.974;2024-03-25T03:08:35;86788.56;;;-145.17;68.85
32759;BME280;19125;52.360;9.974;2024-03-25T03:11:01;86836.19;;;-145.17;68.63
32759;BME280;19125;52.360;9.974;2024-03-25T03:13:26;86875.91;;;-145.17;68.81
32759;BME280;19125;52.360;9.974;2024-03-25T03:15:51;86881.84;;;-145.17;68.56
32759;BME280;19125;52.360;9.974;2024-03-25T03:18:17;86921.53;;;-145.17;68.70
32759;BME280;19125;52.360;9.974;2024-03-25T03:20:42;86973.16;;;-145.17;68.63
32759;BME280;19125;52.360;9.974;2024-03-25T03:23:07;86979.09;;;-145.17;68.83
32759;BME280;19125;52.360;9.974;2024-03-25T03:25:32;87016.81;;;-145.17;68.75
32759;BME280;19125;52.360;9.974;2024-03-25T03:27:58;87006.88;;;-145.17;68.59
32759;BME280;19125;52.360;9.974;2024-03-25T03:30:23;87020.78;;;-145.17;68.73
32759;BME280;19125;52.360;9.974;2024-03-25T03:32:48;87030.72;;;-145.17;68.63
32759;BME280;19125;52.360;9.974;2024-03-25T03:35:14;87096.22;;;-145.17;68.56
32759;BME280;19125;52.360;9.974;2024-03-25T03:37:39;87018.81;;;-145.17;68.75
32759;BME280;19125;52.360;9.974;2024-03-25T03:40:05;87050.56;;;-145.17;68.67
32759;BME280;19125;52.360;9.974;2024-03-25T03:42:33;87000.94;;;-145.17;68.69
32759;BME280;19125;52.360;9.974;2024-03-25T03:44:58;86963.22;;;-145.17;68.96
32759;BME280;19125;52.360;9.974;2024-03-25T03:47:24;86909.63;;;-145.17;68.86
32759;BME280;19125;52.360;9.974;2024-03-25T03:49:49;86858.03;;;-145.17;68.75
32759;BME280;19125;52.360;9.974;2024-03-25T03:52:14;86812.38;;;-145.17;69.15
32759;BME280;19125;52.360;9.974;2024-03-25T03:54:40;86750.88;;;-145.17;68.87
32759;BME280;19125;52.360;9.974;2024-03-25T03:57:05;86734.97;;;-145.17;68.98
32759;BME280;19125;52.360;9.974;2024-03-25T03:59:31;86744.91;;;-145.17;68.95
32759;BME280;19125;52.360;9.974;2024-03-25T04:01:56;86729.03;;;-145.17;68.87
32759;BME280;19125;52.360;9.974;2024-03-25T04:04:22;86754.84;;;-145.17;68.84
32759;BME280;19125;52.360;9.974;2024-03-25T04:06:47;86798.50;;;-145.17;68.79
32759;BME280;19125;52.360;9.974;2024-03-25T04:09:12;86778.66;;;-145.17;68.96
32759;BME280;19125;52.360;9.974;2024-03-25T04:11:38;86734.97;;;-145.17;68.90
32759;BME280;19125;52.360;9.974;2024-03-25T04:14:04;86806.44;;;-145.17;69.02
32759;BME280;19125;52.360;9.974;2024-03-25T04:16:29;86762.78;;;-145.17;68.97
32759;BME280;19125;52.360;9.974;2024-03-25T04:18:56;86802.47;;;-145.17;68.76
32759;BME280;19125;52.360;9.974;2024-03-25T04:21:22;86826.28;;;-145.17;69.07
32759;BME280;19125;52.360;9.974;2024-03-25T04:23:47;86889.78;;;-145.17;68.91
32759;BME280;19125;52.360;9.974;2024-03-25T04:26:14;86877.88;;;-145.17;69.06
32759;BME280;19125;52.360;9.974;2024-03-25T04:28:40;86917.56;;;-145.17;68.89
32759;BME280;19125;52.360;9.974;2024-03-25T04:31:07;86897.72;;;-145.17;69.23
32759;BME280;19125;52.360;9.974;2024-03-25T04:33:33;86865.97;;;-145.17;69.19
32759;BME280;19125;52.360;9.974;2024-03-25T04:35:58;86800.47;;;-145.17;69.20
32759;BME280;19125;52.360;9.974;2024-03-25T04:38:24;86784.59;;;-145.17;69.24
32759;BME280;19125;52.360;9.974;2024-03-25T04:40:49;86707.19;;;-145.17;69.20
32759;BME280;19125;52.360;9.974;2024-03-25T04:43:15;86568.28;;;-145.17;69.43
32759;BME280;19125;52.360;9.974;2024-03-25T04:45:40;86461.09;;;-145.17;69.50
32759;BME280;19125;52.360;9.974;2024-03-25T04:48:06;86296.41;;;-145.17;69.73
32759;BME280;19125;52.360;9.974;2024-03-25T04:50:33;86173.38;;;-145.17;69.45
32759;BME280;19125;52.360;9.974;2024-03-25T04:52:58;86040.41;;;-145.17;69.68
32759;BME280;19125;52.360;9.974;2024-03-25T04:55:24;85857.88;;;-145.17;69.86
32759;BME280;19125;52.360;9.974;2024-03-25T04:57:49;85760.63;;;-145.17;69.77
32759;BME280;19125;52.360;9.974;2024-03-25T05:00:15;85516.59;;;-145.17;69.98
32759;BME280;19125;52.360;9.974;2024-03-25T05:02:40;85421.34;;;-145.17;70.09
32759;BME280;19125;52.360;9.974;2024-03-25T05:05:06;85361.84;;;-145.17;69.79
32759;BME280;19125;52.360;9.974;2024-03-25T05:07:33;85201.13;;;-145.17;70.13
32759;BME280;19125;52.360;9.974;2024-03-25T05:09:58;85252.72;;;-145.17;70.12
32759;BME280;19125;52.360;9.974;2024-03-25T05:12:23;85292.41;;;-145.17;70.16
32759;BME280;19125;52.360;9.974;2024-03-25T05:14:49;85345.97;;;-145.17;70.08
32759;BME280;19125;52.360;9.974;2024-03-25T05:17:14;85334.06;;;-145.17;69.79
32759;BME280;19125;52.360;9.974;2024-03-25T05:19:39;85349.94;;;-145.17;69.98
32759;BME280;19125;52.360;9.974;2024-03-25T05:22:05;85357.88;;;-145.17;70.05
32759;BME280;19125;52.360;9.974;2024-03-25T05:24:30;85238.84;;;-145.17;70.22
32759;BME280;19125;52.360;9.974;2024-03-25T05:26:55;84929.34;;;-145.17;70.42
32759;BME280;19125;52.360;9.974;2024-03-25T05:29:21;84639.75;;;-145.17;70.15
32759;BME280;19125;52.360;9.974;2024-03-25T05:31:57;84179.56;;;-145.17;70.45
32759;BME280;19125;52.360;9.974;2024-03-25T05:34:24;83759.09;;;-145.17;70.80
32759;BME280;19125;52.360;9.974;2024-03-25T05:36:49;83271.28;;;-145.17;70.78
32759;BME280;19125;52.360;9.974;2024-03-25T05:39:14;83005.56;;;-145.17;70.68
32759;BME280;19125;52.360;9.974;2024-03-25T05:41:40;82912.38;;;-145.17;70.72
32759;BME280;19125;52.360;9.974;2024-03-25T05:44:05;82652.66;;;-145.17;70.71
32759;BME280;19125;52.360;9.974;2024-03-25T05:46:30;82624.88;;;-145.17;70.45
32759;BME280;19125;52.360;9.974;2024-03-25T05:48:56;82486.09;;;-145.17;70.50
32759;BME280;19125;52.360;9.974;2024-03-25T05:51:21;82398.88;;;-145.17;70.58
32759;BME280;19125;52.360;9.974;2024-03-25T05:53:46;82583.25;;;-145.17;70.50
32759;BME280;19125;52.360;9.974;2024-03-25T05:56:12;82702.22;;;-145.17;70.42
32759;BME280;19125;52.360;9.974;2024-03-25T05:58:37;83082.91;;;-145.17;70.50
32759;BME280;19125;52.360;9.974;2024-03-25T06:01:02;83778.94;;;-145.17;70.08
32759;BME280;19125;52.360;9.974;2024-03-25T06:03:29;84254.94;;;-145.17;70.04
32759;BME280;19125;52.360;9.974;2024-03-25T06:05:55;84584.19;;;-145.17;69.74
32759;BME280;19125;52.360;9.974;2024-03-25T06:08:20;84830.16;;;-145.17;69.76
32759;BME280;19125;52.360;9.974;2024-03-25T06:11:03;85276.53;;;-145.17;69.61
32759;BME280;19125;52.360;9.974;2024-03-25T06:13:28;85468.97;;;-145.17;69.69
32759;BME280;19125;52.360;9.974;2024-03-25T06:15:54;85840.00;;;-145.17;69.53
32759;BME280;19125;52.360;9.974;2024-03-25T06:18:19;86153.53;;;-145.17;69.17
32759;BME280;19125;52.360;9.974;2024-03-25T06:20:44;86381.72;;;-145.17;68.73
32759;BME280;19125;52.360;9.974;2024-03-25T06:23:10;86536.53;;;-145.17;68.81
32759;BME280;19125;52.360;9.974;2024-03-25T06:25:35;86711.16;;;-145.17;68.58
32759;BME280;19125;52.360;9.974;2024-03-25T06:28:02;86836.19;;;-145.17;68.34
32759;BME280;19125;52.360;9.974;2024-03-25T06:30:28;86913.59;;;-145.17;68.33
32759;BME280;19125;52.360;9.974;2024-03-25T06:33:12;87016.81;;;-145.17;68.32
32759;BME280;19125;52.360;9.974;2024-03-25T06:35:56;87120.03;;;-145.17;67.99
32759;BME280;19125;52.360;9.974;2024-03-25T06:38:21;87153.78;;;-145.17;67.50
32759;BME280;19125;52.360;9.974;2024-03-25T06:40:46;87229.19;;;-145.17;67.75
32759;BME280;19125;52.360;9.974;2024-03-25T06:43:12;87290.72;;;-145.17;67.30
32759;BME280;19125;52.360;9.974;2024-03-25T06:45:38;87288.75;;;-145.17;67.21
32759;BME280;19125;52.360;9.974;2024-03-25T06:48:03;87322.47;;;-145.17;67.03
32759;BME280;19125;52.360;9.974;2024-03-25T06:50:29;87324.47;;;-145.17;66.87
32759;BME280;19125;52.360;9.974;2024-03-25T06:52:55;87378.06;;;-145.17;66.45
32759;BME280;19125;52.360;9.974;2024-03-25T06:55:21;87401.88;;;-145.17;66.19
32759;BME280;19125;52.360;9.974;2024-03-25T06:57:50;87411.81;;;-145.17;66.11
32759;BME280;19125;52.360;9.974;2024-03-25T07:00:15;87403.88;;;-145.17;65.65
32759;BME280;19125;52.360;9.974;2024-03-25T07:02:41;87366.16;;;-145.17;65.72
32759;BME280;19125;52.360;9.974;2024-03-25T07:05:06;87370.13;;;-145.17;64.98
32759;BME280;19125;52.360;9.974;2024-03-25T07:07:32;87362.19;;;-145.17;65.06
32759;BME280;19125;52.360;9.974;2024-03-25T07:09:58;87362.19;;;-145.17;64.90
32759;BME280;19125;52.360;9.974;2024-03-25T07:12:24;87397.91;;;-145.17;64.29
32759;BME280;19125;52.360;9.974;2024-03-25T07:14:49;87334.41;;;-145.17;64.04
32759;BME280;19125;52.360;9.974;2024-03-25T07:17:15;87330.44;;;-145.17;64.05
32759;BME280;19125;52.360;9.974;2024-03-25T07:19:40;87306.59;;;-145.17;63.71
32759;BME280;19125;52.360;9.974;2024-03-25T07:22:05;87334.41;;;-145.17;63.43
32759;BME280;19125;52.360;9.974;2024-03-25T07:24:30;87304.63;;;-145.17;63.24
32759;BME280;19125;52.360;9.974;2024-03-25T07:26:56;87304.63;;;-145.17;62.67
32759;BME280;19125;52.360;9.974;2024-03-25T07:29:21;87286.75;;;-145.17;62.63
32759;BME280;19125;52.360;9.974;2024-03-25T07:31:47;87314.53;;;-145.17;62.45
32759;BME280;19125;52.360;9.974;2024-03-25T07:34:12;87264.91;;;-145.17;62.06
32759;BME280;19125;52.360;9.974;2024-03-25T07:36:38;87258.97;;;-145.17;61.57
32759;BME280;19125;52.360;9.974;2024-03-25T07:39:04;87219.28;;;-145.17;61.75
32759;BME280;19125;52.360;9.974;2024-03-25T07:41:36;87223.25;;;-145.17;61.30
32759;BME280;19125;52.360;9.974;2024-03-25T07:44:01;87223.25;;;-145.17;61.06
32759;BME280;19125;52.360;9.974;2024-03-25T07:46:26;87203.38;;;-145.17;61.05
32759;BME280;19125;52.360;9.974;2024-03-25T07:48:52;87131.94;;;-145.17;60.82
32759;BME280;19125;52.360;9.974;2024-03-25T07:51:17;87175.59;;;-145.17;60.52
32759;BME280;19125;52.360;9.974;2024-03-25T07:53:42;87191.47;;;-145.17;59.86
32759;BME280;19125;52.360;9.974;2024-03-25T07:56:08;87227.22;;;-145.17;60.13
32759;BME280;19125;52.360;9.974;2024-03-25T07:58:34;87122.00;;;-145.17;59.92
32759;BME280;19125;52.360;9.974;2024-03-25T08:00:59;87163.69;;;-145.17;59.92
32759;BME280;19125;52.360;9.974;2024-03-25T08:03:25;87159.72;;;-145.17;59.79
32759;BME280;19125;52.360;9.974;2024-03-25T08:05:51;87131.94;;;-145.17;59.62
32759;BME280;19125;52.360;9.974;2024-03-25T08:08:19;87125.97;;;-145.17;59.26
32759;BME280;19125;52.360;9.974;2024-03-25T08:10:45;87100.19;;;-145.17;58.95
32759;BME280;19125;52.360;9.974;2024-03-25T08:13:10;87112.09;;;-145.17;58.58
32759;BME280;19125;52.360;9.974;2024-03-25T08:15:36;87098.19;;;-145.17;58.58
32759;BME280;19125;52.360;9.974;2024-03-25T08:18:01;87092.25;;;-145.17;58.48
32759;BME280;19125;52.360;9.974;2024-03-25T08:20:26;87024.75;;;-145.17;58.24
32759;BME280;19125;52.360;9.974;2024-03-25T08:22:52;87042.63;;;-145.17;57.96
32759;BME280;19125;52.360;9.974;2024-03-25T08:25:17;87060.47;;;-145.17;57.18
32759;BME280;19125;52.360;9.974;2024-03-25T08:27:42;87026.75;;;-145.17;56.57
32759;BME280;19125;52.360;9.974;2024-03-25T08:30:08;86994.97;;;-145.17;56.25
32759;BME280;19125;52.360;9.974;2024-03-25T08:32:33;86987.03;;;-145.17;55.97
32759;BME280;19125;52.360;9.974;2024-03-25T08:34:59;86975.13;;;-145.17;55.96
32759;BME280;19125;52.360;9.974;2024-03-25T08:37:24;86973.16;;;-145.17;55.34
32759;BME280;19125;52.360;9.974;2024-03-25T08:39:49;86965.22;;;-145.17;55.21
32759;BME280;19125;52.360;9.974;2024-03-25T08:42:15;86915.59;;;-145.17;54.79
32759;BME280;19125;52.360;9.974;2024-03-25T08:44:40;86941.38;;;-145.17;54.43
32759;BME280;19125;52.360;9.974;2024-03-25T08:47:05;86935.44;;;-145.17;52.93
32759;BME280;19125;52.360;9.974;2024-03-25T08:49:31;86889.78;;;-145.17;52.86
32759;BME280;19125;52.360;9.974;2024-03-25T08:51:56;86909.63;;;-145.17;52.95
32759;BME280;19125;52.360;9.974;2024-03-25T08:54:22;86887.81;;;-145.17;53.23
32759;BME280;19125;52.360;9.974;2024-03-25T08:56:47;86865.97;;;-145.17;51.90
32759;BME280;19125;52.360;9.974;2024-03-25T08:59:13;86838.19;;;-145.17;51.60
32759;BME280;19125;52.360;9.974;2024-03-25T09:01:38;86913.59;;;-145.17;50.75
32759;BME280;19125;52.360;9.974;2024-03-25T09:04:03;86856.06;;;-145.17;50.88
32759;BME280;19125;52.360;9.974;2024-03-25T09:06:29;86858.03;;;-145.17;50.28
32759;BME280;19125;52.360;9.974;2024-03-25T09:08:54;86871.94;;;-145.17;50.37
32759;BME280;19125;52.360;9.974;2024-03-25T09:11:38;86836.19;;;-145.17;50.18
32759;BME280;19125;52.360;9.974;2024-03-25T09:14:04;86865.97;;;-145.17;49.93
32759;BME280;19125;52.360;9.974;2024-03-25T09:16:31;86856.06;;;-145.17;50.47
32759;BME280;19125;52.360;9.974;2024-03-25T09:18:56;86822.31;;;-145.17;50.47
32759;BME280;19125;52.360;9.974;2024-03-25T09:21:22;86768.72;;;-145.17;49.84
32759;BME280;19125;52.360;9.974;2024-03-25T09:23:49;86764.75;;;-145.17;49.84
32759;BME280;19125;52.360;9.974;2024-03-25T09:26:15;86738.94;;;-145.17;49.14
32759;BME280;19125;52.360;9.974;2024-03-25T09:28:40;86786.59;;;-145.17;48.26
32759;BME280;19125;52.360;9.974;2024-03-25T09:31:06;86772.69;;;-145.17;48.53
32759;BME280;19125;52.360;9.974;2024-03-25T09:33:31;86774.69;;;-145.17;48.03
32759;BME280;19125;52.360;9.974;2024-03-25T09:35:57;86758.81;;;-145.17;47.81
32759;BME280;19125;52.360;9.974;2024-03-25T09:38:22;86727.03;;;-145.17;47.37
32759;BME280;19125;52.360;9.974;2024-03-25T09:40:47;86780.63;;;-145.17;47.02
32759;BME280;19125;52.360;9.974;2024-03-25T09:43:32;86766.75;;;-145.17;46.97
32759;BME280;19125;52.360;9.974;2024-03-25T09:45:59;86754.84;;;-145.17;46.59
32759;BME280;19125;52.360;9.974;2024-03-25T09:48:25;86792.53;;;-145.17;45.72
32759;BME280;19125;52.360;9.974;2024-03-25T09:50:52;86740.94;;;-145.17;44.49
32759;BME280;19125;52.360;9.974;2024-03-25T09:53:17;86812.38;;;-145.17;44.79
32759;BME280;19125;52.360;9.974;2024-03-25T09:55:46;86790.56;;;-145.17;44.68
32759;BME280;19125;52.360;9.974;2024-03-25T09:58:11;86804.44;;;-145.17;43.99
32759;BME280;19125;52.360;9.974;2024-03-25T10:00:37;86820.31;;;-145.17;43.64
32759;BME280;19125;52.360;9.974;2024-03-25T10:03:02;86782.63;;;-145.17;44.07
32759;BME280;19125;52.360;9.974;2024-03-25T10:05:28;86810.41;;;-145.17;44.52
32759;BME280;19125;52.360;9.974;2024-03-25T10:07:53;86814.38;;;-145.17;43.70
32759;BME280;19125;52.360;9.974;2024-03-25T10:10:22;86846.13;;;-145.17;42.74
32759;BME280;19125;52.360;9.974;2024-03-25T10:12:47;86836.19;;;-145.17;42.69
32759;BME280;19125;52.360;9.974;2024-03-25T10:15:16;86806.44;;;-145.17;42.42
32759;BME280;19125;52.360;9.974;2024-03-25T10:17:42;86828.25;;;-145.17;40.42
32759;BME280;19125;52.360;9.974;2024-03-25T10:20:13;86846.13;;;-145.17;39.83
32759;BME280;19125;52.360;9.974;2024-03-25T10:22:42;86788.56;;;-145.17;40.18
32759;BME280;19125;52.360;9.974;2024-03-25T10:25:18;86796.50;;;-145.17;40.13
32759;BME280;19125;52.360;9.974;2024-03-25T10:28:01;86774.69;;;-145.17;39.43
32759;BME280;19125;52.360;9.974;2024-03-25T10:30:28;86794.53;;;-145.17;40.49
32759;BME280;19125;52.360;9.974;2024-03-25T10:33:12;86729.03;;;-145.17;41.37
32759;BME280;19125;52.360;9.974;2024-03-25T10:35:38;86725.06;;;-145.17;41.50
32759;BME280;19125;52.360;9.974;2024-03-25T10:38:05;86762.78;;;-145.17;41.38
32759;BME280;19125;52.360;9.974;2024-03-25T10:40:36;86762.78;;;-145.17;40.91
32759;BME280;19125;52.360;9.974;2024-03-25T10:43:04;86754.84;;;-145.17;40.64
32759;BME280;19125;52.360;9.974;2024-03-25T10:45:37;86677.44;;;-145.17;40.20
32759;BME280;19125;52.360;9.974;2024-03-25T10:48:17;86693.31;;;-145.17;39.42
32759;BME280;19125;52.360;9.974;2024-03-25T10:50:45;86667.50;;;-145.17;39.67
32759;BME280;19125;52.360;9.974;2024-03-25T10:53:14;86663.53;;;-145.17;39.77
32759;BME280;19125;52.360;9.974;2024-03-25T10:55:42;86740.94;;;-145.17;39.46
32759;BME280;19125;52.360;9.974;2024-03-25T10:58:10;86651.63;;;-145.17;38.44
32759;BME280;19125;52.360;9.974;2024-03-25T11:00:36;86729.03;;;-145.17;38.53
32759;BME280;19125;52.360;9.974;2024-03-25T11:03:02;86687.34;;;-145.17;39.14
32759;BME280;19125;52.360;9.974;2024-03-25T11:05:28;86683.38;;;-145.17;39.58
32759;BME280;19125;52.360;9.974;2024-03-25T11:07:53;86770.72;;;-145.17;39.14
32759;BME280;19125;52.360;9.974;2024-03-25T11:10:28;86675.44;;;-145.17;39.12
32759;BME280;19125;52.360;9.974;2024-03-25T11:12:54;86653.63;;;-145.17;38.74
32759;BME280;19125;52.360;9.974;2024-03-25T11:15:19;86691.31;;;-145.17;38.65
32759;BME280;19125;52.360;9.974;2024-03-25T11:17:49;86691.31;;;-145.17;38.43
32759;BME280;19125;52.360;9.974;2024-03-25T11:20:16;86637.75;;;-145.17;38.21
32759;BME280;19125;52.360;9.974;2024-03-25T11:22:48;86633.78;;;-145.17;38.30
32759;BME280;19125;52.360;9.974;2024-03-25T11:25:15;86651.63;;;-145.17;37.93
32759;BME280;19125;52.360;9.974;2024-03-25T11:27:43;86687.34;;;-145.17;38.17
32759;BME280;19125;52.360;9.974;2024-03-25T11:30:13;86627.81;;;-145.17;38.33
32759;BME280;19125;52.360;9.974;2024-03-25T11:32:46;86588.13;;;-145.17;37.58
32759;BME280;19125;52.360;9.974;2024-03-25T11:35:12;86584.16;;;-145.17;37.67
32759;BME280;19125;52.360;9.974;2024-03-25T11:37:40;86604.00;;;-145.17;37.71
32759;BME280;19125;52.360;9.974;2024-03-25T11:40:07;86645.69;;;-145.17;38.09
32759;BME280;19125;52.360;9.974;2024-03-25T11:42:34;86623.84;;;-145.17;38.05
32759;BME280;19125;52.360;9.974;2024-03-25T11:45:01;86625.81;;;-145.17;38.24
32759;BME280;19125;52.360;9.974;2024-03-25T11:47:27;86619.88;;;-145.17;38.57
32759;BME280;19125;52.360;9.974;2024-03-25T11:49:53;86600.03;;;-145.17;38.07
32759;BME280;19125;52.360;9.974;2024-03-25T11:52:18;86635.75;;;-145.17;38.33
32759;BME280;19125;52.360;9.974;2024-03-25T11:54:44;86615.91;;;-145.17;38.13
32759;BME280;19125;52.360;9.974;2024-03-25T11:57:09;86651.63;;;-145.17;38.40
32759;BME280;19125;52.360;9.974;2024-03-25T11:59:35;86588.13;;;-145.17;38.41
32759;BME280;19125;52.360;9.974;2024-03-25T12:02:00;86607.97;;;-145.17;38.26
32759;BME280;19125;52.360;9.974;2024-03-25T12:04:27;86607.97;;;-145.17;37.81
32759;BME280;19125;52.360;9.974;2024-03-25T12:06:54;86570.25;;;-145.17;37.05
32759;BME280;19125;52.360;9.974;2024-03-25T12:09:22;86594.06;;;-145.17;37.40
32759;BME280;19125;52.360;9.974;2024-03-25T12:12:07;86592.09;;;-145.17;37.56
32759;BME280;19125;52.360;9.974;2024-03-25T12:14:33;86580.19;;;-145.17;37.75
32759;BME280;19125;52.360;9.974;2024-03-25T12:16:59;86600.03;;;-145.17;37.88
32759;BME280;19125;52.360;9.974;2024-03-25T12:19:24;86594.06;;;-145.17;38.31
32759;BME280;19125;52.360;9.974;2024-03-25T12:21:50;86598.03;;;-145.17;38.23
32759;BME280;19125;52.360;9.974;2024-03-25T12:24:15;86613.91;;;-145.17;37.80
32759;BME280;19125;52.360;9.974;2024-03-25T12:26:41;86600.03;;;-145.17;37.91
32759;BME280;19125;52.360;9.974;2024-03-25T12:29:06;86600.03;;;-145.17;37.81
32759;BME280;19125;52.360;9.974;2024-03-25T12:31:32;86619.88;;;-145.17;37.51
32759;BME280;19125;52.360;9.974;2024-03-25T12:33:58;86651.63;;;-145.17;37.83
32759;BME280;19125;52.360;9.974;2024-03-25T12:36:23;86619.88;;;-145.17;37.59